Time;durP1;ratioP1;P1;durP2;ratioP2;P2;SDS_P1;SDS_P2;PMS_P1;PMS_P2;Temp;Humidity;BMP_temperature;BMP_pressure;BME280_temperature;BME280_humidity;BME280_pressure;Samples;Min_cycle;Max_cycle;Signal;HPM_P1;HPM_P2
2021/10/24 00:05:37;;;;;;;1999.90;999.90;;;;;;;8.55;74.43;102583.44;15496747;28;20052;-60
2021/10/24 00:13:10;;;;;;;1999.90;999.90;;;;;;;8.51;74.36;102582.31;15495889;28;20408;-56
2021/10/24 00:20:43;;;;;;;1999.90;999.90;;;;;;;8.77;74.02;102582.38;15478020;28;20038;-56
2021/10/24 00:28:16;;;;;;;1999.90;999.90;;;;;;;8.73;74.04;102584.88;15496446;28;20109;-58
2021/10/24 00:35:50;;;;;;;1999.90;999.90;;;;;;;8.90;73.49;102585.47;15494178;28;20101;-57
2021/10/24 00:43:23;;;;;;;1999.90;999.90;;;;;;;8.81;73.74;102587.09;15493967;28;20054;-55
2021/10/24 00:50:57;;;;;;;1999.90;999.90;;;;;;;8.84;74.13;102586.56;15493496;28;20050;-54
2021/10/24 00:58:30;;;;;;;1999.90;999.90;;;;;;;8.59;74.18;102584.56;15476548;28;20050;-56
2021/10/24 01:06:04;;;;;;;1999.90;999.90;;;;;;;8.59;74.16;102573.44;15491809;28;20117;-56
2021/10/24 01:13:37;;;;;;;1999.90;999.90;;;;;;;8.83;73.25;102579.31;15474933;28;20055;-58
2021/10/24 01:21:11;;;;;;;1999.90;999.90;;;;;;;8.66;73.32;102574.00;15489916;28;20050;-54
2021/10/24 01:28:44;;;;;;;1999.90;999.90;;;;;;;8.65;73.48;102560.38;15490468;28;20038;-56
2021/10/24 01:36:18;;;;;;;1999.90;999.90;;;;;;;8.52;73.86;102547.81;15491187;28;20122;-59
2021/10/24 01:43:51;;;;;;;1999.90;999.90;;;;;;;8.46;73.79;102562.00;15490152;28;20065;-59
2021/10/24 01:51:26;;;;;;;1999.90;999.90;;;;;;;8.17;75.12;102558.81;15474399;28;20050;-56
2021/10/24 01:58:58;;;;;;;1999.90;999.90;;;;;;;8.35;73.93;102550.00;15489849;28;20117;-58
2021/10/24 02:06:52;;;;;;;1999.90;999.90;;;;;;;8.21;74.20;102554.34;15490040;28;20089;-57
2021/10/24 02:14:27;;;;;;;1999.90;999.90;;;;;;;8.23;75.01;102553.00;15488889;28;20404;-57
2021/10/24 02:22:03;;;;;;;1999.90;999.90;;;;;;;8.22;73.63;102550.47;15474927;28;20120;-59
2021/10/24 02:29:37;;;;;;;1999.90;999.90;;;;;;;8.18;73.64;102544.63;15474011;28;20455;-55
2021/10/24 02:37:11;;;;;;;1999.90;999.90;;;;;;;8.06;74.89;102546.81;15490432;28;20145;-56
2021/10/24 02:44:44;;;;;;;1999.90;999.90;;;;;;;8.07;74.15;102543.75;15491486;28;20038;-54
2021/10/24 02:52:19;;;;;;;1999.90;999.90;;;;;;;7.93;75.29;102542.59;15487850;28;20092;-60
2021/10/24 02:59:51;;;;;;;1999.90;999.90;;;;;;;7.73;74.65;102546.09;15486497;28;20050;-58
2021/10/24 03:07:25;;;;;;;1999.90;999.90;;;;;;;7.87;74.38;102548.38;15488226;28;20073;-56
2021/10/24 03:14:58;;;;;;;1999.90;999.90;;;;;;;7.71;74.70;102553.88;15486463;28;20034;-59
2021/10/24 03:22:34;;;;;;;1999.90;999.90;;;;;;;7.59;74.56;102557.94;15452717;28;20098;-56
2021/10/24 03:30:10;;;;;;;1999.90;999.90;;;;;;;7.36;73.63;102565.56;15426335;28;20066;-53
2021/10/24 03:37:45;;;;;;;1999.90;999.90;;;;;;;7.04;73.43;102573.09;15425605;28;20678;-54
2021/10/24 03:45:18;;;;;;;1999.90;999.90;;;;;;;6.85;72.62;102567.91;15412683;28;20408;-57
2021/10/24 03:52:52;;;;;;;1999.90;999.90;;;;;;;6.70;73.64;102569.72;15436419;28;20074;-63
2021/10/24 04:00:25;;;;;;;1999.90;999.90;;;;;;;6.63;73.04;102569.91;15437071;28;20045;-55
2021/10/24 04:08:06;;;;;;;1999.90;999.90;;;;;;;6.56;74.00;102584.00;15435585;28;20073;-56
2021/10/24 04:23:43;;;;;;;1999.90;999.90;;;;;;;6.34;72.73;102592.34;15333288;28;20555;-63
2021/10/24 04:31:18;;;;;;;1999.90;999.90;;;;;;;6.23;73.06;102592.47;15320395;29;20461;-61
2021/10/24 04:38:52;;;;;;;1999.90;999.90;;;;;;;6.22;74.44;102585.25;15319366;29;20059;-63
2021/10/24 04:46:25;;;;;;;1999.90;999.90;;;;;;;6.39;73.77;102585.19;15318937;29;20042;-62
2021/10/24 04:53:59;;;;;;;1999.90;999.90;;;;;;;6.40;74.24;102578.53;15318196;29;20062;-62
2021/10/24 05:01:31;;;;;;;1999.90;999.90;;;;;;;6.12;74.64;102577.66;15317897;29;20046;-62
2021/10/24 05:09:06;;;;;;;1999.90;999.90;;;;;;;6.21;75.36;102578.03;15318446;29;20051;-62
2021/10/24 05:16:40;;;;;;;1999.90;999.90;;;;;;;6.15;73.61;102588.25;15316683;29;20040;-62
2021/10/24 05:24:15;;;;;;;1999.90;999.90;;;;;;;5.98;72.71;102599.38;15406488;28;20046;-63
2021/10/24 05:31:48;;;;;;;1999.90;999.90;;;;;;;5.47;74.01;102595.00;15419409;28;20085;-63
2021/10/24 05:39:25;;;;;;;1999.90;999.90;;;;;;;5.39;73.57;102590.72;15418959;28;20097;-62
2021/10/24 05:46:58;;;;;;;1999.90;999.90;;;;;;;5.35;73.35;102586.78;15402720;28;20054;-63
2021/10/24 05:54:32;;;;;;;1999.90;999.90;;;;;;;5.34;73.18;102589.81;15434331;28;20101;-62
2021/10/24 06:02:05;;;;;;;1999.90;999.90;;;;;;;5.43;73.32;102589.13;15417368;28;20031;-63
2021/10/24 06:09:44;;;;;;;1999.90;999.90;;;;;;;5.67;74.30;102598.09;15416781;28;20576;-63
2021/10/24 06:17:17;;;;;;;1999.90;999.90;;;;;;;5.75;73.50;102596.81;15433104;28;20165;-63
2021/10/24 06:24:51;;;;;;;1999.90;999.90;;;;;;;5.88;75.06;102601.97;15383383;28;20408;-62
2021/10/24 06:32:34;;;;;;;1999.90;999.90;;;;;;;5.98;74.70;102590.22;15341425;29;20508;-62
2021/10/24 06:40:28;;;;;;;1999.90;999.90;;;;;;;5.93;77.14;102607.59;15344780;28;20110;-62
2021/10/24 06:48:06;;;;;;;1999.90;999.90;;;;;;;6.34;75.19;102614.53;15341221;28;20117;-63
2021/10/24 06:56:13;;;;;;;1999.90;999.90;;;;;;;6.86;73.92;102604.84;15359208;28;20058;-62
2021/10/24 07:04:06;;;;;;;1999.90;999.90;;;;;;;7.67;71.42;102610.25;15374376;29;20043;-62
2021/10/24 07:12:01;;;;;;;1999.90;999.90;;;;;;;8.20;69.33;102614.72;15364950;28;20060;-62
2021/10/24 07:19:33;;;;;;;1999.90;999.90;;;;;;;8.61;68.37;102610.16;15367785;28;20384;-61
2021/10/24 07:27:12;;;;;;;1999.90;999.90;;;;;;;8.68;67.83;102619.09;15428596;28;20050;-62
2021/10/24 07:34:45;;;;;;;1999.90;999.90;;;;;;;9.19;66.85;102619.19;15442053;28;20042;-63
2021/10/24 07:42:19;;;;;;;1999.90;999.90;;;;;;;9.61;65.99;102625.59;15410386;28;20464;-63
2021/10/24 07:49:53;;;;;;;1999.90;999.90;;;;;;;9.88;65.72;102614.94;15426159;28;20102;-63
2021/10/24 07:57:27;;;;;;;1999.90;999.90;;;;;;;10.52;64.11;102613.34;15425407;28;20081;-63
2021/10/24 08:05:02;;;;;;;1999.90;999.90;;;;;;;11.55;62.19;102617.91;15425628;28;20046;-62
2021/10/24 08:12:36;;;;;;;1999.90;999.90;;;;;;;11.19;62.67;102617.38;15425282;28;20051;-63
2021/10/24 08:20:10;;;;;;;1999.90;999.90;;;;;;;12.07;60.66;102611.53;15409434;28;20485;-63
2021/10/24 08:27:44;;;;;;;1999.90;999.90;;;;;;;11.73;61.35;102610.75;15349052;28;20048;-61
2021/10/24 08:35:37;;;;;;;1999.90;999.90;;;;;;;13.16;56.72;102607.78;15333758;29;20102;-62
2021/10/24 08:43:17;;;;;;;1999.90;999.90;;;;;;;14.30;54.98;102605.44;15363198;29;20039;-63
2021/10/24 08:50:51;;;;;;;1999.90;999.90;;;;;;;13.68;55.23;102608.63;15378044;28;20054;-62
2021/10/24 08:58:25;;;;;;;1999.90;999.90;;;;;;;14.86;52.83;102609.84;15361078;28;20051;-62
2021/10/24 09:05:58;;;;;;;1999.90;999.90;;;;;;;14.23;53.97;102597.44;15378337;28;20316;-63
2021/10/24 09:13:34;;;;;;;1999.90;999.90;;;;;;;14.76;52.19;102594.06;15378236;29;20049;-63
2021/10/24 09:21:21;;;;;;;1999.90;999.90;;;;;;;15.19;50.61;102585.16;15398961;28;20073;-63
2021/10/24 09:29:02;;;;;;;1999.90;999.90;;;;;;;15.78;49.78;102588.72;15420200;28;20067;-63
2021/10/24 09:36:50;;;;;;;1999.90;999.90;;;;;;;17.45;46.98;102593.16;15420122;28;20047;-63
2021/10/24 09:45:06;;;;;;;1999.90;999.90;;;;;;;17.85;44.85;102590.94;15413403;28;20441;-63
2021/10/24 09:52:39;;;;;;;1999.90;999.90;;;;;;;17.39;45.71;102572.75;15436512;28;20411;-63
2021/10/24 10:00:16;;;;;;;1999.90;999.90;;;;;;;17.85;44.66;102582.47;15403468;28;20065;-62
2021/10/24 10:07:49;;;;;;;1999.90;999.90;;;;;;;17.62;46.06;102567.72;15435564;28;20053;-62
2021/10/24 10:15:23;;;;;;;;;;;;;;;18.51;44.08;102565.00;15436041;28;20109;-63
2021/10/24 10:23:04;;;;;;;1999.90;999.90;;;;;;;18.56;42.83;102570.47;15544732;23;19975;-62
2021/10/24 10:30:40;;;;;;;1999.90;999.90;;;;;;;19.15;42.43;102542.03;15569486;28;20042;-61
2021/10/24 10:38:30;;;;;;;1999.90;999.90;;;;;;;19.90;39.99;102537.03;15568744;28;20034;-62
2021/10/24 10:46:05;;;;;;;1999.90;999.90;;;;;;;19.51;40.31;102530.84;15569514;28;20072;-63
2021/10/24 10:53:56;;;;;;;1999.90;999.90;;;;;;;20.39;37.80;102520.00;15571999;28;20038;-63
2021/10/24 11:01:37;;;;;;;1999.90;999.90;;;;;;;19.55;38.76;102514.81;15580727;28;20153;-63
2021/10/24 11:09:11;;;;;;;1999.90;999.90;;;;;;;20.80;36.33;102509.53;15579043;28;20503;-63
2021/10/24 11:16:46;;;;;;;1999.90;999.90;;;;;;;19.62;35.65;102494.44;15576086;28;20038;-62
2021/10/24 11:24:20;;;;;;;1999.90;999.90;;;;;;;20.42;34.64;102488.09;15525731;28;20055;-62
2021/10/24 11:32:40;;;;;;;1999.90;999.90;;;;;;;21.96;33.33;102467.66;15514692;28;20057;-63
2021/10/24 11:40:17;;;;;;;1999.90;999.90;;;;;;;20.33;34.20;102467.59;15510208;28;20042;-64
2021/10/24 11:48:00;;;;;;;1999.90;999.90;;;;;;;21.60;32.80;102458.25;15512699;28;20077;-62
2021/10/24 11:55:35;;;;;;;1999.90;999.90;;;;;;;23.01;31.16;102448.47;15495661;28;20046;-61
2021/10/24 12:03:07;;;;;;;1999.90;999.90;;;;;;;22.49;30.88;102443.31;15513012;28;20050;-63
2021/10/24 12:10:49;;;;;;;1999.90;999.90;;;;;;;22.72;30.78;102432.84;15494110;28;20455;-62
2021/10/24 12:18:26;;;;;;;1999.90;999.90;;;;;;;21.51;32.34;102418.69;15512343;28;20130;-63
2021/10/24 12:26:03;;;;;;;1999.90;999.90;;;;;;;21.55;32.31;102402.53;15451168;28;20047;-61
2021/10/24 12:33:38;;;;;;;1999.90;999.90;;;;;;;24.00;28.80;102387.91;15453780;28;20061;-63
2021/10/24 12:41:11;;;;;;;1999.90;999.90;;;;;;;25.36;27.18;102388.31;15454011;28;20511;-63
2021/10/24 12:48:46;;;;;;;1999.90;999.90;;;;;;;26.40;26.25;102373.50;15456979;28;20046;-63
2021/10/24 12:56:21;;;;;;;1999.90;999.90;;;;;;;24.39;27.52;102363.63;15453816;28;20050;-62
2021/10/24 13:03:55;;;;;;;1999.90;999.90;;;;;;;22.46;31.26;102350.22;15448335;28;20129;-62
2021/10/24 13:11:29;;;;;;;1999.90;999.90;;;;;;;21.13;33.15;102333.28;15452104;28;20058;-64
2021/10/24 13:19:01;;;;;;;1999.90;999.90;;;;;;;18.23;37.47;102327.31;15462950;28;20046;-63
2021/10/24 13:26:37;;;;;;;1999.90;999.90;;;;;;;17.56;39.27;102323.50;15571372;28;20107;-63
2021/10/24 13:34:10;;;;;;;1999.90;999.90;;;;;;;15.99;42.57;102305.41;15568093;28;20073;-63
2021/10/24 13:41:44;;;;;;;1999.90;999.90;;;;;;;15.51;44.10;102291.44;15569151;28;20050;-61
2021/10/24 13:49:17;;;;;;;1999.90;999.90;;;;;;;15.42;44.39;102299.03;15565340;28;20054;-63
2021/10/24 13:56:51;;;;;;;1999.90;999.90;;;;;;;15.92;43.38;102285.38;15566788;28;20049;-62
2021/10/24 14:04:24;;;;;;;1999.90;999.90;;;;;;;14.97;44.46;102271.97;15563987;28;20418;-62
2021/10/24 14:11:58;;;;;;;1999.90;999.90;;;;;;;15.45;44.94;102276.72;15545583;28;20050;-63
2021/10/24 14:19:31;;;;;;;1999.90;999.90;;;;;;;15.31;44.64;102267.56;15557214;28;20144;-64
2021/10/24 14:27:05;;;;;;;1999.90;999.90;;;;;;;15.19;45.76;102261.75;15502467;28;20089;-63
2021/10/24 14:34:39;;;;;;;1999.90;999.90;;;;;;;14.98;46.85;102248.31;15484456;28;20168;-63
2021/10/24 14:42:14;;;;;;;1999.90;999.90;;;;;;;14.83;47.19;102229.09;15500274;28;20222;-62
2021/10/24 14:49:47;;;;;;;1999.90;999.90;;;;;;;14.82;47.25;102232.25;15517064;28;20060;-63
2021/10/24 14:57:21;;;;;;;1999.90;999.90;;;;;;;14.57;48.92;102216.91;15500993;28;20122;-62
2021/10/24 15:04:54;;;;;;;1999.90;999.90;;;;;;;14.54;48.51;102207.16;15505016;28;20050;-61
2021/10/24 15:12:29;;;;;;;1999.90;999.90;;;;;;;14.58;48.29;102198.91;15504509;28;20050;-61
2021/10/24 15:27:54;;;;;;;1999.90;999.90;;;;;;;14.26;49.14;102189.66;15569452;28;20045;-63
2021/10/24 15:35:27;;;;;;;1999.90;999.90;;;;;;;14.04;50.07;102193.31;15569174;28;20049;-63
2021/10/24 15:43:02;;;;;;;1999.90;999.90;;;;;;;13.86;50.70;102184.00;15572503;28;20483;-62
2021/10/24 15:50:36;;;;;;;1999.90;999.90;;;;;;;13.82;51.24;102182.94;15577775;28;20065;-62
2021/10/24 15:58:16;;;;;;;1999.90;999.90;;;;;;;13.13;52.79;102176.75;15578096;28;20133;-62
2021/10/24 16:05:50;;;;;;;1999.90;999.90;;;;;;;12.41;54.34;102173.81;15576464;28;20117;-62
2021/10/24 16:13:26;;;;;;;1999.90;999.90;;;;;;;12.58;53.91;102175.97;15556378;28;20104;-62
2021/10/24 16:20:59;;;;;;;1999.90;999.90;;;;;;;12.21;55.08;102157.44;15601861;23;20051;-60
2021/10/24 16:28:32;;;;;;;1999.90;999.90;;;;;;;11.79;55.92;102165.72;15624961;28;20050;-60
2021/10/24 16:36:05;;;;;;;1999.90;999.90;;;;;;;11.43;56.29;102162.66;15624518;28;20052;-61
2021/10/24 16:43:39;;;;;;;1999.90;999.90;;;;;;;11.31;56.60;102153.91;15623646;28;20063;-60
2021/10/24 16:51:12;;;;;;;1999.90;999.90;;;;;;;10.89;57.44;102147.25;15622826;28;20042;-61
2021/10/24 16:58:46;;;;;;;1999.90;999.90;;;;;;;11.06;56.96;102140.34;15622320;28;20045;-61
2021/10/24 17:06:18;;;;;;;1999.90;999.90;;;;;;;10.67;57.76;102139.47;15622303;28;20055;-61
2021/10/24 17:13:52;;;;;;;1999.90;999.90;;;;;;;10.65;57.93;102127.78;15620386;28;20060;-61
2021/10/24 17:21:25;;;;;;;1999.90;999.90;;;;;;;10.41;58.48;102121.38;15578850;28;20156;-61
2021/10/24 17:28:59;;;;;;;1999.90;999.90;;;;;;;10.19;59.38;102121.88;15558199;28;20037;-60
2021/10/24 17:36:31;;;;;;;;;;;;;;;10.31;59.24;102121.47;15560404;28;20584;-60
2021/10/24 17:44:06;;;;;;;1999.90;999.90;;;;;;;10.40;57.96;102116.91;15541285;28;20382;-61
2021/10/24 17:51:39;;;;;;;1999.90;999.90;;;;;;;10.84;56.40;102110.22;15558081;28;20491;-60
2021/10/24 17:59:13;;;;;;;1999.90;999.90;;;;;;;10.11;58.39;102101.06;15556272;28;20088;-61
2021/10/24 18:06:47;;;;;;;1999.90;999.90;;;;;;;10.03;58.45;102093.34;15556981;28;20050;-61
2021/10/24 18:14:20;;;;;;;1999.90;999.90;;;;;;;10.25;57.77;102087.25;15557379;28;20050;-61
2021/10/24 18:21:53;;;;;;;1999.90;999.90;;;;;;;10.08;56.85;102079.31;15585111;28;20543;-61
2021/10/24 18:29:27;;;;;;;1999.90;999.90;;;;;;;10.08;56.83;102067.34;15616265;28;20507;-61
2021/10/24 18:37:00;;;;;;;1999.90;999.90;;;;;;;10.15;56.72;102053.03;15617565;28;20041;-61
2021/10/24 18:44:35;;;;;;;1999.90;999.90;;;;;;;9.98;57.14;102050.72;15617320;28;20407;-61
2021/10/24 18:52:08;;;;;;;1999.90;999.90;;;;;;;10.00;56.84;102045.66;15616141;28;20048;-61
2021/10/24 18:59:43;;;;;;;1999.90;999.90;;;;;;;9.84;57.59;102034.72;15615488;28;20525;-61
2021/10/24 19:07:16;;;;;;;1999.90;999.90;;;;;;;9.92;57.36;102022.06;15615619;28;20045;-58
2021/10/24 19:14:50;;;;;;;1999.90;999.90;;;;;;;9.77;58.02;102011.91;15618722;28;20103;-58
2021/10/24 19:22:23;;;;;;;1999.90;999.90;;;;;;;9.53;59.01;102003.56;15596302;28;20125;-59
2021/10/24 19:29:57;;;;;;;1999.90;999.90;;;;;;;9.18;60.32;101999.19;15567927;28;20506;-60
2021/10/24 19:37:30;;;;;;;1999.90;999.90;;;;;;;8.66;62.10;101972.88;15566996;28;20092;-64
2021/10/24 19:45:06;;;;;;;1999.90;999.90;;;;;;;8.94;61.58;101984.34;15566097;28;20518;-57
2021/10/24 19:52:41;;;;;;;1999.90;999.90;;;;;;;8.65;62.56;101976.78;15565641;28;20088;-59
2021/10/24 20:00:16;;;;;;;1999.90;999.90;;;;;;;8.30;64.14;101968.63;15565188;28;20038;-60
2021/10/24 20:07:50;;;;;;;1999.90;999.90;;;;;;;8.06;65.13;101962.94;15566406;28;20053;-60
2021/10/24 20:15:26;;;;;;;1999.90;999.90;;;;;;;8.09;65.11;101954.00;15564344;28;20088;-60
2021/10/24 20:22:59;;;;;;;1999.90;999.90;;;;;;;8.20;64.74;101952.84;15601308;28;20046;-60
2021/10/24 20:30:33;;;;;;;1999.90;999.90;;;;;;;8.00;65.46;101953.78;15626028;28;20096;-61
2021/10/24 20:38:06;;;;;;;1999.90;999.90;;;;;;;7.60;66.77;101942.84;15607142;28;20049;-60
2021/10/24 20:45:41;;;;;;;1999.90;999.90;;;;;;;7.70;66.57;101943.63;15624702;28;20052;-61
2021/10/24 20:53:17;;;;;;;1999.90;999.90;;;;;;;7.62;66.54;101935.06;15624258;28;20103;-60
2021/10/24 21:00:51;;;;;;;1999.90;999.90;;;;;;;7.74;66.26;101939.19;15605048;28;20515;-60
2021/10/24 21:08:24;;;;;;;1999.90;999.90;;;;;;;8.05;65.34;101933.47;15620965;28;20046;-60
2021/10/24 21:15:58;;;;;;;1999.90;999.90;;;;;;;8.10;64.68;101931.47;15621936;28;20518;-58
2021/10/24 21:23:30;;;;;;;1999.90;999.90;;;;;;;7.72;65.52;101923.91;15579402;28;20038;-59
2021/10/24 21:31:04;;;;;;;1999.90;999.90;;;;;;;7.16;67.93;101907.44;15558862;28;20499;-60
2021/10/24 21:38:37;;;;;;;1999.90;999.90;;;;;;;7.52;67.01;101899.84;15557720;28;20128;-61
2021/10/24 21:46:11;;;;;;;1999.90;999.90;;;;;;;6.99;68.55;101898.59;15557160;28;20112;-60
2021/10/24 21:53:44;;;;;;;1999.90;999.90;;;;;;;7.34;67.36;101892.94;15556755;28;20129;-60
2021/10/24 22:01:19;;;;;;;1999.90;999.90;;;;;;;7.15;67.86;101889.94;15557065;28;20037;-60
2021/10/24 22:08:51;;;;;;;1999.90;999.90;;;;;;;7.13;68.15;101878.28;15556834;28;20053;-61
2021/10/24 22:16:25;;;;;;;1999.90;999.90;;;;;;;7.41;66.90;101882.38;15556650;28;20045;-61
2021/10/24 22:23:58;;;;;;;1999.90;999.90;;;;;;;7.14;68.02;101873.56;15561803;23;20072;-53
2021/10/24 22:31:36;;;;;;;1999.90;999.90;;;;;;;7.43;67.31;101879.31;15550235;28;20042;-55
2021/10/24 22:39:08;;;;;;;1999.90;999.90;;;;;;;7.15;67.53;101864.13;15548975;28;20422;-59
2021/10/24 22:46:43;;;;;;;1999.90;999.90;;;;;;;7.46;66.59;101851.78;15548600;28;20426;-61
2021/10/24 22:54:17;;;;;;;1999.90;999.90;;;;;;;6.97;67.79;101853.63;15549005;28;20062;-58
2021/10/24 23:01:51;;;;;;;1999.90;999.90;;;;;;;7.28;67.49;101848.81;15549415;28;20119;-61
2021/10/24 23:09:24;;;;;;;1999.90;999.90;;;;;;;7.18;66.91;101844.13;15547587;28;20062;-58
2021/10/24 23:16:58;;;;;;;1999.90;999.90;;;;;;;7.32;66.78;101838.81;15540779;28;20042;-58
2021/10/24 23:24:30;;;;;;;1999.90;999.90;;;;;;;7.15;66.97;101839.97;15548450;28;20048;-56
2021/10/24 23:32:05;;;;;;;1999.90;999.90;;;;;;;7.02;67.62;101829.47;15546727;28;20096;-60
2021/10/24 23:39:39;;;;;;;1999.90;999.90;;;;;;;6.86;67.73;101837.00;15546589;28;20129;-56
2021/10/24 23:47:13;;;;;;;1999.90;999.90;;;;;;;6.89;67.37;101835.63;15546774;28;20436;-61
2021/10/24 23:54:45;;;;;;;1999.90;999.90;;;;;;;6.64;68.00;101828.16;15547722;28;20489;-59
